Time;durP1;ratioP1;P1;durP2;ratioP2;P2;SDS_P1;SDS_P2;PMS_P1;PMS_P2;Temp;Humidity;BMP_temperature;BMP_pressure;BME280_temperature;BME280_humidity;BME280_pressure;Samples;Min_cycle;Max_cycle;Signal;HPM_P1;HPM_P2
2023/07/19 00:01:35;;;;;;;7.17;5.87;;;18.90;99.90;;;;;;5015435;28;20272;-77
2023/07/19 00:04:02;;;;;;;7.70;6.07;;;18.80;99.90;;;;;;5014231;28;20561;-77
2023/07/19 00:06:28;;;;;;;7.90;5.80;;;18.80;99.90;;;;;;5009195;28;20203;-78
2023/07/19 00:08:56;;;;;;;7.53;5.80;;;18.70;99.90;;;;;;5020658;28;20680;-77
2023/07/19 00:11:22;;;;;;;5.97;5.20;;;18.60;99.90;;;;;;5016798;28;20602;-78
2023/07/19 00:13:49;;;;;;;7.03;5.97;;;18.60;99.90;;;;;;5014193;28;20201;-77
2023/07/19 00:16:17;;;;;;;8.20;6.03;;;18.60;99.90;;;;;;5021744;28;20212;-78
2023/07/19 00:18:44;;;;;;;8.20;5.73;;;18.60;99.90;;;;;;5014082;28;20204;-78
2023/07/19 00:21:11;;;;;;;8.30;5.80;;;18.50;99.90;;;;;;5013889;28;20212;-78
2023/07/19 00:23:38;;;;;;;7.33;6.17;;;18.50;99.90;;;;;;5013753;28;20237;-78
2023/07/19 00:26:05;;;;;;;7.63;5.20;;;18.50;99.90;;;;;;5020697;28;20236;-78
2023/07/19 00:28:32;;;;;;;6.47;5.67;;;18.50;99.90;;;;;;5017285;28;20204;-77
2023/07/19 00:31:03;;;;;;;7.37;5.57;;;18.40;99.90;;;;;;5018337;28;20205;-78
2023/07/19 00:33:31;;;;;;;6.20;5.17;;;18.40;99.90;;;;;;5016580;28;20289;-78
2023/07/19 00:36:00;;;;;;;5.73;5.13;;;18.40;99.90;;;;;;5013194;28;20194;-78
2023/07/19 00:38:27;;;;;;;7.73;6.97;;;18.40;99.90;;;;;;5013290;28;20231;-77
2023/07/19 00:40:54;;;;;;;10.20;9.30;;;18.40;99.90;;;;;;5013145;28;20196;-78
2023/07/19 00:43:20;;;;;;;10.03;9.23;;;18.40;99.90;;;;;;5013152;28;20218;-77
2023/07/19 00:45:48;;;;;;;10.67;9.77;;;18.40;99.90;;;;;;5014719;28;20232;-78
2023/07/19 00:48:16;;;;;;;6.83;5.83;;;18.30;99.90;;;;;;5019558;28;20274;-78
2023/07/19 00:50:45;;;;;;;8.73;6.20;;;18.30;99.90;;;;;;5015083;28;20256;-77
2023/07/19 00:53:12;;;;;;;6.80;5.37;;;18.30;99.90;;;;;;5007775;28;20228;-78
2023/07/19 00:55:39;;;;;;;6.07;5.27;;;18.30;99.90;;;;;;5007619;28;20201;-78
2023/07/19 00:58:07;;;;;;;7.07;5.97;;;18.30;99.90;;;;;;5013054;28;20200;-77
2023/07/19 01:00:34;;;;;;;6.57;5.83;;;18.30;99.90;;;;;;5013033;28;20206;-78
2023/07/19 01:03:01;;;;;;;6.63;5.47;;;18.20;99.90;;;;;;5013001;28;20221;-78
2023/07/19 01:05:28;;;;;;;7.43;6.10;;;18.30;99.90;;;;;;5006171;28;20320;-78
2023/07/19 01:07:58;;;;;;;7.23;5.80;;;18.30;99.90;;;;;;5012537;28;20194;-78
2023/07/19 01:10:26;;;;;;;7.67;5.70;;;18.30;99.90;;;;;;5012944;28;20209;-78
2023/07/19 01:13:06;;;;;;;6.90;5.50;;;18.30;99.90;;;;;;5033042;23;20224;-76
2023/07/19 01:15:33;;;;;;;7.47;6.17;;;18.20;99.90;;;;;;5027372;28;20570;-75
2023/07/19 01:18:00;;;;;;;7.00;5.97;;;18.20;99.90;;;;;;5017719;28;20702;-75
2023/07/19 01:20:27;;;;;;;6.50;5.23;;;18.10;99.90;;;;;;5022497;28;20286;-76
2023/07/19 01:22:55;;;;;;;6.10;5.37;;;18.10;99.90;;;;;;5007283;28;20240;-76
2023/07/19 01:25:22;;;;;;;6.67;5.80;;;18.10;99.90;;;;;;4997717;28;20284;-76
2023/07/19 01:27:49;;;;;;;6.47;5.10;;;18.10;99.90;;;;;;5002271;28;20676;-75
2023/07/19 01:30:17;;;;;;;6.53;5.77;;;18.10;99.90;;;;;;5007882;28;20204;-75
2023/07/19 01:32:45;;;;;;;6.80;5.67;;;18.10;99.90;;;;;;5006021;28;20213;-76
2023/07/19 01:35:13;;;;;;;8.43;5.57;;;18.10;99.90;;;;;;5000393;28;20907;-76
2023/07/19 01:37:40;;;;;;;6.73;6.00;;;18.20;99.90;;;;;;5016115;28;20612;-76
2023/07/19 01:40:12;;;;;;;6.87;5.70;;;18.20;99.90;;;;;;5006666;28;20252;-75
2023/07/19 01:42:39;;;;;;;6.73;5.50;;;18.20;99.90;;;;;;5005287;28;20320;-76
2023/07/19 01:45:07;;;;;;;8.27;7.57;;;18.20;99.90;;;;;;5009542;28;20208;-76
2023/07/19 01:47:34;;;;;;;6.77;5.43;;;18.30;99.90;;;;;;5004120;28;20197;-75
2023/07/19 01:50:01;;;;;;;6.30;5.33;;;18.30;99.90;;;;;;5004480;28;20255;-75
2023/07/19 01:52:27;;;;;;;6.63;5.47;;;18.30;99.90;;;;;;5004017;28;20240;-76
2023/07/19 01:54:54;;;;;;;6.33;5.67;;;18.40;99.90;;;;;;5002865;28;20247;-75
2023/07/19 01:57:23;;;;;;;6.57;5.20;;;18.40;99.90;;;;;;5007717;28;20236;-76
2023/07/19 01:59:50;;;;;;;5.80;5.10;;;18.40;99.90;;;;;;5009229;28;20662;-76
2023/07/19 02:02:16;;;;;;;5.73;4.90;;;18.50;99.90;;;;;;5005241;28;20216;-76
2023/07/19 02:04:43;;;;;;;5.80;5.20;;;18.50;99.90;;;;;;5002437;28;20213;-76
2023/07/19 02:07:10;;;;;;;7.57;5.50;;;18.50;99.90;;;;;;5007716;28;20652;-76
2023/07/19 02:09:37;;;;;;;6.67;5.97;;;18.60;99.90;;;;;;5006404;28;20197;-76
2023/07/19 02:12:04;;;;;;;7.43;5.63;;;18.50;99.90;;;;;;5002023;28;20822;-76
2023/07/19 02:14:33;;;;;;;6.67;5.60;;;18.50;99.90;;;;;;5015989;28;20206;-76
2023/07/19 02:16:59;;;;;;;5.83;5.23;;;18.50;99.90;;;;;;4993844;28;20194;-75
2023/07/19 02:19:26;;;;;;;5.87;4.73;;;18.50;99.90;;;;;;5007809;28;20198;-76
2023/07/19 02:21:53;;;;;;;7.17;4.67;;;18.50;99.90;;;;;;5013589;28;20229;-76
2023/07/19 02:24:20;;;;;;;7.07;6.17;;;18.50;99.90;;;;;;5009164;28;20573;-76
2023/07/19 02:26:49;;;;;;;5.13;4.60;;;18.60;99.90;;;;;;5008753;28;20220;-76
2023/07/19 02:29:15;;;;;;;6.33;5.53;;;18.60;99.90;;;;;;5008061;28;20236;-75
2023/07/19 02:31:44;;;;;;;7.57;5.13;;;18.60;99.90;;;;;;5008323;28;20217;-76
2023/07/19 02:34:13;;;;;;;5.83;4.73;;;18.60;99.90;;;;;;5009027;28;20208;-76
2023/07/19 02:36:40;;;;;;;6.40;5.13;;;18.60;99.90;;;;;;5000481;28;20222;-76
2023/07/19 02:39:07;;;;;;;7.43;5.43;;;18.60;99.90;;;;;;5012669;28;20208;-76
2023/07/19 02:41:34;;;;;;;6.63;5.03;;;18.60;99.90;;;;;;5010696;28;20203;-78
2023/07/19 02:44:02;;;;;;;7.60;6.90;;;18.50;99.90;;;;;;5008817;28;20289;-76
2023/07/19 02:46:29;;;;;;;6.60;5.20;;;18.50;99.90;;;;;;5006527;28;20372;-76
2023/07/19 02:48:57;;;;;;;6.33;5.20;;;18.40;99.90;;;;;;5006493;28;20202;-76
2023/07/19 02:51:25;;;;;;;6.53;5.70;;;18.30;99.90;;;;;;5009993;28;20719;-76
2023/07/19 02:53:51;;;;;;;6.50;5.13;;;18.20;99.90;;;;;;5001811;28;20218;-78
2023/07/19 02:56:18;;;;;;;6.03;5.33;;;18.10;99.90;;;;;;5004068;28;20195;-78
2023/07/19 02:58:46;;;;;;;8.30;5.43;;;18.10;99.90;;;;;;4991881;28;20212;-78
2023/07/19 03:01:14;;;;;;;6.27;5.17;;;18.10;99.90;;;;;;4999368;28;20205;-78
2023/07/19 03:03:42;;;;;;;5.80;4.97;;;18.20;99.90;;;;;;5000238;28;20223;-77
2023/07/19 03:06:10;;;;;;;6.77;5.40;;;18.10;99.90;;;;;;4992801;28;20218;-77
2023/07/19 03:08:37;;;;;;;7.27;5.67;;;18.20;99.90;;;;;;4996614;28;20207;-76
2023/07/19 03:11:05;;;;;;;6.40;5.63;;;18.20;99.90;;;;;;4987314;28;20679;-79
2023/07/19 03:13:31;;;;;;;6.77;5.57;;;18.10;99.90;;;;;;4996813;28;20218;-79
2023/07/19 03:15:59;;;;;;;9.37;6.10;;;18.10;99.90;;;;;;5002767;28;20233;-78
2023/07/19 03:18:26;;;;;;;7.20;5.63;;;18.10;99.90;;;;;;4999616;28;20204;-81
2023/07/19 03:20:57;;;;;;;6.80;5.87;;;18.00;99.90;;;;;;4997281;28;20201;-78
2023/07/19 03:23:26;;;;;;;7.33;5.80;;;18.00;99.90;;;;;;5008623;28;20252;-78
2023/07/19 03:25:57;;;;;;;9.20;5.73;;;18.00;99.90;;;;;;5015110;28;20308;-77
2023/07/19 03:28:24;;;;;;;7.77;6.20;;;17.90;99.90;;;;;;5010091;28;20200;-78
2023/07/19 03:30:54;;;;;;;7.13;6.43;;;17.90;99.90;;;;;;5012860;28;20202;-79
2023/07/19 03:33:22;;;;;;;7.30;6.60;;;17.80;99.90;;;;;;4998852;28;20770;-79
2023/07/19 03:35:49;;;;;;;10.23;9.33;;;17.80;99.90;;;;;;5012421;28;20672;-79
2023/07/19 03:38:16;;;;;;;7.57;5.90;;;17.80;99.90;;;;;;5000487;28;20197;-79
2023/07/19 03:40:44;;;;;;;6.80;5.60;;;17.80;99.90;;;;;;5001738;28;20206;-78
2023/07/19 03:43:11;;;;;;;6.70;5.90;;;17.80;99.90;;;;;;4998329;28;20217;-79
2023/07/19 03:45:39;;;;;;;7.17;5.90;;;17.80;99.90;;;;;;4999517;28;20220;-79
2023/07/19 03:48:07;;;;;;;6.63;5.87;;;17.80;99.90;;;;;;5014845;28;20211;-78
2023/07/19 03:50:35;;;;;;;8.97;6.23;;;17.70;99.90;;;;;;4999081;28;20240;-77
2023/07/19 03:53:04;;;;;;;7.87;5.93;;;17.80;99.90;;;;;;5000515;28;20294;-78
2023/07/19 03:55:31;;;;;;;6.60;5.63;;;17.80;99.90;;;;;;4999941;28;20189;-78
2023/07/19 03:58:00;;;;;;;7.27;5.67;;;17.80;99.90;;;;;;5000859;28;20205;-79
2023/07/19 04:00:28;;;;;;;7.33;5.87;;;17.80;99.90;;;;;;5001575;28;20260;-78
2023/07/19 04:02:55;;;;;;;9.30;6.00;;;17.70;99.90;;;;;;5014720;28;20603;-78
2023/07/19 04:05:22;;;;;;;8.23;6.00;;;17.70;99.90;;;;;;5000677;28;20205;-79
2023/07/19 04:07:49;;;;;;;6.87;5.47;;;17.70;99.90;;;;;;5003872;28;20207;-80
2023/07/19 04:10:18;;;;;;;9.77;6.17;;;17.70;99.90;;;;;;5005123;28;20189;-79
2023/07/19 04:12:45;;;;;;;7.57;6.20;;;17.70;99.90;;;;;;5016222;28;20257;-79
2023/07/19 04:15:14;;;;;;;6.33;5.30;;;17.80;99.90;;;;;;5004891;28;20193;-79
2023/07/19 04:17:40;;;;;;;7.23;6.20;;;17.80;99.90;;;;;;5001586;28;20248;-79
2023/07/19 04:20:08;;;;;;;7.47;5.93;;;17.80;99.90;;;;;;5000782;28;20262;-79
2023/07/19 04:22:35;;;;;;;8.17;6.17;;;17.80;99.90;;;;;;5016607;28;20308;-79
2023/07/19 04:25:03;;;;;;;7.57;6.63;;;17.90;99.90;;;;;;5001463;28;20216;-79
2023/07/19 04:27:31;;;;;;;11.87;10.87;;;17.90;99.90;;;;;;5000100;28;20217;-79
2023/07/19 04:29:58;;;;;;;8.23;6.93;;;18.00;99.90;;;;;;5000279;28;20193;-79
2023/07/19 04:32:26;;;;;;;7.57;6.83;;;18.00;99.90;;;;;;5000109;28;20221;-79
2023/07/19 04:34:54;;;;;;;8.67;5.27;;;18.00;99.90;;;;;;5000787;28;20209;-78
2023/07/19 04:37:20;;;;;;;7.10;6.30;;;18.10;99.90;;;;;;4999013;28;20259;-78
2023/07/19 04:39:48;;;;;;;7.07;5.60;;;18.10;99.90;;;;;;4998915;28;20194;-79
2023/07/19 04:42:15;;;;;;;6.70;5.47;;;18.20;99.90;;;;;;4999637;28;20212;-79
2023/07/19 04:44:42;;;;;;;7.30;5.70;;;18.20;99.90;;;;;;5012192;28;20211;-79
2023/07/19 04:47:10;;;;;;;7.30;5.73;;;18.30;99.90;;;;;;5000885;28;20221;-79
2023/07/19 04:49:38;;;;;;;8.33;6.50;;;18.40;99.90;;;;;;4999446;28;20216;-79
2023/07/19 04:52:05;;;;;;;8.80;5.97;;;18.40;99.90;;;;;;4999831;28;20263;-79
2023/07/19 04:54:33;;;;;;;8.50;5.77;;;18.60;99.90;;;;;;5015620;28;20586;-79
2023/07/19 04:57:00;;;;;;;7.53;6.30;;;18.70;99.90;;;;;;5013643;28;20574;-79
2023/07/19 04:59:27;;;;;;;10.20;9.40;;;18.90;99.90;;;;;;4999219;28;20199;-79
2023/07/19 05:01:54;;;;;;;10.67;9.87;;;19.10;99.90;;;;;;5000616;28;20637;-79
2023/07/19 05:04:21;;;;;;;6.07;5.13;;;19.30;99.90;;;;;;4999060;28;20199;-80
2023/07/19 05:06:50;;;;;;;7.97;5.90;;;19.40;99.90;;;;;;5000008;28;20861;-79
2023/07/19 05:09:17;;;;;;;6.63;5.23;;;19.60;99.90;;;;;;5011226;28;20238;-80
2023/07/19 05:11:45;;;;;;;9.60;8.70;;;19.60;99.90;;;;;;5001676;28;20225;-78
2023/07/19 05:14:12;;;;;;;5.97;5.23;;;19.70;99.90;;;;;;4998450;28;20213;-79
2023/07/19 05:16:39;;;;;;;6.33;5.37;;;19.70;99.90;;;;;;4998482;28;20285;-78
2023/07/19 05:19:06;;;;;;;8.00;7.30;;;19.70;99.90;;;;;;4997189;28;20222;-80
2023/07/19 05:21:33;;;;;;;7.43;6.73;;;19.80;99.90;;;;;;4997962;28;20204;-79
2023/07/19 05:24:02;;;;;;;5.83;4.80;;;20.00;99.90;;;;;;4997762;28;20227;-79
2023/07/19 05:26:30;;;;;;;7.20;5.23;;;20.20;99.90;;;;;;5010259;28;20300;-79
2023/07/19 05:28:57;;;;;;;6.43;5.37;;;20.50;99.90;;;;;;4996376;28;20205;-81
2023/07/19 05:31:23;;;;;;;7.97;6.10;;;20.60;99.90;;;;;;4997745;28;20510;-79
2023/07/19 05:33:50;;;;;;;10.27;9.37;;;20.80;99.90;;;;;;4995705;28;20197;-79
2023/07/19 05:36:17;;;;;;;6.27;5.00;;;20.90;99.90;;;;;;4995328;28;20197;-80
2023/07/19 05:38:44;;;;;;;6.87;5.87;;;21.10;99.90;;;;;;5007834;28;20215;-79
2023/07/19 05:41:12;;;;;;;7.67;6.97;;;21.20;99.90;;;;;;5012533;28;20671;-79
2023/07/19 05:43:39;;;;;;;6.67;5.07;;;21.40;99.90;;;;;;5013329;28;20224;-79
2023/07/19 05:46:07;;;;;;;6.43;5.43;;;21.60;99.90;;;;;;5015404;28;20204;-81
2023/07/19 05:48:34;;;;;;;6.23;5.57;;;21.80;99.90;;;;;;4999241;28;20240;-80
2023/07/19 05:51:01;;;;;;;9.50;8.60;;;22.00;99.90;;;;;;5009299;28;20201;-80
2023/07/19 05:53:28;;;;;;;7.63;6.93;;;22.40;99.90;;;;;;5003523;28;20220;-81
2023/07/19 05:55:56;;;;;;;7.57;5.80;;;23.00;99.90;;;;;;5013869;28;20200;-78
2023/07/19 05:58:27;;;;;;;5.87;5.00;;;23.70;99.90;;;;;;5011665;28;20227;-79
2023/07/19 06:00:54;;;;;;;6.93;5.83;;;23.90;99.90;;;;;;5011527;28;20272;-79
2023/07/19 06:03:21;;;;;;;9.70;8.80;;;24.10;99.90;;;;;;5021648;28;20212;-79
2023/07/19 06:05:48;;;;;;;5.83;5.23;;;24.20;99.90;;;;;;5011356;28;20239;-80
2023/07/19 06:08:15;;;;;;;6.53;5.60;;;24.30;99.90;;;;;;5007206;28;20280;-80
2023/07/19 06:10:42;;;;;;;8.03;7.30;;;24.30;99.90;;;;;;4995578;28;20232;-79
2023/07/19 06:13:09;;;;;;;8.13;7.50;;;24.40;99.90;;;;;;4997002;28;20650;-79
2023/07/19 06:15:37;;;;;;;9.80;9.07;;;24.90;99.90;;;;;;4999349;28;20204;-79
2023/07/19 06:18:04;;;;;;;6.43;5.77;;;25.40;99.90;;;;;;4996665;28;20205;-79
2023/07/19 06:20:30;;;;;;;6.70;5.80;;;25.70;99.90;;;;;;4999068;28;20204;-79
2023/07/19 06:22:57;;;;;;;8.63;7.83;;;25.70;99.90;;;;;;4995006;28;20696;-79
2023/07/19 06:25:24;;;;;;;8.63;7.93;;;25.80;99.90;;;;;;5000831;28;20202;-80
2023/07/19 06:27:51;;;;;;;9.67;7.70;;;25.70;99.90;;;;;;5007281;28;20720;-80
2023/07/19 06:30:18;;;;;;;10.43;9.63;;;25.70;99.90;;;;;;5007245;28;20197;-79
2023/07/19 06:32:46;;;;;;;9.27;8.33;;;26.00;99.90;;;;;;5008155;28;20280;-79
2023/07/19 06:35:12;;;;;;;10.97;9.97;;;26.40;99.90;;;;;;4999292;28;20570;-79
2023/07/19 06:37:39;;;;;;;10.47;9.60;;;26.70;99.90;;;;;;4994824;28;20201;-80
2023/07/19 06:40:07;;;;;;;9.67;8.87;;;27.10;99.90;;;;;;4998868;28;20197;-79
2023/07/19 06:42:34;;;;;;;10.67;9.60;;;27.50;99.90;;;;;;5008689;28;20280;-81
2023/07/19 06:45:03;;;;;;;8.17;7.37;;;27.70;99.90;;;;;;5013324;28;20770;-80
2023/07/19 06:47:30;;;;;;;9.50;8.60;;;28.10;99.90;;;;;;4998192;28;20308;-81
2023/07/19 06:49:59;;;;;;;9.70;8.73;;;28.30;99.90;;;;;;4999103;28;20284;-80
2023/07/19 06:52:25;;;;;;;9.57;8.67;;;28.60;99.90;;;;;;5016373;28;20300;-83
2023/07/19 06:54:52;;;;;;;9.73;8.73;;;28.70;99.90;;;;;;5005380;28;20251;-79
2023/07/19 06:57:20;;;;;;;10.37;9.47;;;29.10;99.90;;;;;;5017348;28;20216;-80
2023/07/19 06:59:49;;;;;;;9.30;8.40;;;29.10;99.90;;;;;;4993984;28;20193;-81
2023/07/19 07:02:18;;;;;;;9.13;8.33;;;29.30;99.90;;;;;;5003338;28;20583;-80
2023/07/19 07:04:45;;;;;;;8.27;7.47;;;29.50;99.90;;;;;;4999992;28;20236;-82
2023/07/19 07:07:15;;;;;;;7.87;7.07;;;29.30;99.90;;;;;;5001118;28;20255;-81
2023/07/19 07:09:41;;;;;;;9.23;8.33;;;29.50;99.90;;;;;;5016237;28;20200;-81
2023/07/19 07:12:09;;;;;;;6.63;5.83;;;29.70;99.90;;;;;;5015193;28;20220;-81
2023/07/19 07:14:36;;;;;;;7.40;4.60;;;29.90;99.90;;;;;;5011442;28;20208;-81
2023/07/19 07:17:03;;;;;;;8.17;5.70;;;30.10;99.90;;;;;;5009741;28;20205;-82
2023/07/19 07:19:30;;;;;;;7.57;4.97;;;30.00;99.90;;;;;;5005150;28;20205;-81
2023/07/19 07:21:57;;;;;;;7.53;5.20;;;30.00;99.90;;;;;;4998518;28;20268;-80
2023/07/19 07:24:25;;;;;;;6.50;5.20;;;29.90;99.90;;;;;;5005624;28;20235;-81
2023/07/19 07:26:52;;;;;;;7.23;6.40;;;29.60;99.90;;;;;;4999678;28;20275;-80
2023/07/19 07:29:22;;;;;;;9.47;6.27;;;29.70;99.90;;;;;;5007118;28;21132;-81
2023/07/19 07:31:49;;;;;;;6.27;5.10;;;29.60;99.90;;;;;;5012499;28;20315;-82
2023/07/19 07:34:16;;;;;;;5.43;4.60;;;29.80;99.90;;;;;;5014813;28;20198;-81
2023/07/19 07:36:43;;;;;;;5.60;4.40;;;29.70;99.90;;;;;;5011721;28;20201;-81
2023/07/19 07:39:11;;;;;;;13.17;5.10;;;29.80;99.90;;;;;;5022718;28;20204;-80
2023/07/19 07:41:39;;;;;;;8.40;6.70;;;29.80;99.90;;;;;;5005451;28;20232;-81
2023/07/19 07:44:06;;;;;;;7.63;6.80;;;29.90;99.90;;;;;;5020105;28;20576;-80
2023/07/19 07:46:33;;;;;;;6.57;5.87;;;30.30;99.90;;;;;;5017286;28;20255;-81
2023/07/19 07:49:00;;;;;;;6.83;6.23;;;30.30;99.90;;;;;;5014284;28;20201;-80
2023/07/19 07:51:27;;;;;;;5.80;4.33;;;30.40;99.90;;;;;;5011769;28;20204;-80
2023/07/19 07:53:54;;;;;;;7.23;6.53;;;30.40;99.90;;;;;;5000182;28;20197;-80
2023/07/19 07:56:22;;;;;;;6.30;5.40;;;30.20;99.90;;;;;;4990599;28;20264;-79
2023/07/19 07:58:50;;;;;;;7.80;7.10;;;29.90;99.90;;;;;;5007374;28;20665;-80
2023/07/19 08:01:17;;;;;;;6.53;5.90;;;29.70;99.90;;;;;;4989277;28;20204;-80
2023/07/19 08:03:44;;;;;;;4.43;3.80;;;29.50;99.90;;;;;;5007480;28;20228;-80
2023/07/19 08:06:10;;;;;;;7.23;4.63;;;29.40;99.90;;;;;;5007658;28;20197;-79
2023/07/19 08:08:37;;;;;;;7.00;5.80;;;29.40;99.90;;;;;;5012591;28;20228;-80
2023/07/19 08:11:05;;;;;;;5.97;4.00;;;29.40;99.90;;;;;;5012743;28;20557;-80
2023/07/19 08:13:33;;;;;;;5.27;3.73;;;29.50;99.90;;;;;;5006983;28;20258;-80
2023/07/19 08:16:01;;;;;;;6.60;4.77;;;29.90;99.90;;;;;;5004087;28;20205;-78
2023/07/19 08:18:31;;;;;;;6.93;6.23;;;30.00;99.90;;;;;;5026676;28;20204;-80
2023/07/19 08:20:58;;;;;;;7.50;6.90;;;30.10;99.90;;;;;;5013955;28;20200;-79
2023/07/19 08:23:24;;;;;;;7.80;6.97;;;30.40;99.90;;;;;;5015723;28;20228;-81
2023/07/19 08:25:56;;;;;;;4.43;3.50;;;30.40;99.90;;;;;;5014531;28;20208;-80
2023/07/19 08:28:23;;;;;;;6.67;6.07;;;30.40;99.90;;;;;;4998444;28;20763;-82
2023/07/19 08:30:52;;;;;;;7.37;6.67;;;30.50;99.90;;;;;;4994471;28;20209;-80
2023/07/19 08:33:22;;;;;;;7.50;6.90;;;30.70;99.90;;;;;;5016982;28;20312;-77
2023/07/19 08:35:49;;;;;;;7.00;6.30;;;30.90;99.90;;;;;;4988054;28;20283;-77
2023/07/19 08:38:16;;;;;;;7.33;6.60;;;30.90;99.80;;;;;;4997304;28;20284;-78
2023/07/19 08:40:59;;;;;;;7.23;6.63;;;31.00;99.90;;;;;;4995596;28;20213;-78
2023/07/19 08:43:27;;;;;;;7.73;6.60;;;31.00;98.80;;;;;;5001335;28;20735;-78
2023/07/19 08:45:55;;;;;;;7.67;6.30;;;31.00;99.90;;;;;;4997477;28;20289;-78
2023/07/19 08:48:23;;;;;;;7.03;6.23;;;31.30;99.90;;;;;;5010689;28;20222;-77
2023/07/19 08:50:55;;;;;;;6.43;5.83;;;31.40;99.10;;;;;;4990608;28;20679;-77
2023/07/19 08:53:22;;;;;;;5.57;3.27;;;31.60;99.10;;;;;;5012444;28;20252;-82
2023/07/19 08:55:51;;;;;;;4.67;4.27;;;31.70;97.00;;;;;;5010627;28;20252;-82
2023/07/19 08:58:19;;;;;;;4.05;2.95;;;31.70;96.30;;;;;;4990135;28;20248;-81
2023/07/19 09:00:46;;;;;;;6.60;5.90;;;32.00;96.00;;;;;;4989230;28;20444;-81
2023/07/19 09:03:14;;;;;;;6.22;5.72;;;32.00;93.90;;;;;;4989282;28;20601;-81
2023/07/19 09:05:42;;;;;;;6.25;4.78;;;31.30;94.90;;;;;;4994162;28;20296;-82
2023/07/19 09:08:10;;;;;;;4.90;3.90;;;31.30;94.90;;;;;;5004425;28;20251;-81
2023/07/19 09:10:37;;;;;;;7.00;5.47;;;31.20;94.30;;;;;;4992488;28;20219;-81
2023/07/19 09:13:06;;;;;;;5.23;4.83;;;31.20;94.80;;;;;;4986244;28;20276;-81
2023/07/19 09:15:35;;;;;;;3.30;3.00;;;31.00;94.60;;;;;;4994586;28;20730;-81
2023/07/19 09:18:05;;;;;;;4.33;3.70;;;30.70;94.40;;;;;;4986243;28;20723;-81
2023/07/19 09:20:34;;;;;;;4.53;4.10;;;30.40;96.10;;;;;;5008920;28;20214;-81
2023/07/19 09:23:06;;;;;;;4.67;4.27;;;30.10;95.30;;;;;;4993513;28;20224;-81
2023/07/19 09:25:33;;;;;;;6.13;2.67;;;30.00;94.70;;;;;;4995854;28;20228;-81
2023/07/19 09:28:07;;;;;;;5.80;5.30;;;30.10;95.30;;;;;;4991684;28;20774;-81
2023/07/19 09:30:34;;;;;;;3.47;2.53;;;30.40;95.40;;;;;;4992782;28;20193;-81
2023/07/19 09:33:02;;;;;;;3.57;2.87;;;30.60;94.80;;;;;;5009875;28;20251;-80
2023/07/19 09:35:30;;;;;;;5.87;3.10;;;31.00;94.60;;;;;;5007958;28;20660;-81
2023/07/19 09:37:58;;;;;;;4.30;3.20;;;31.10;94.20;;;;;;4990080;28;20420;-80
2023/07/19 09:40:26;;;;;;;6.57;3.50;;;31.20;94.90;;;;;;4992147;28;20494;-81
2023/07/19 09:42:55;;;;;;;4.22;2.90;;;31.10;95.20;;;;;;4998623;28;20430;-77
2023/07/19 09:45:24;;;;;;;6.17;3.40;;;30.80;95.40;;;;;;5003204;28;20204;-75
2023/07/19 09:47:52;;;;;;;10.77;3.40;;;30.70;95.10;;;;;;4999435;28;20217;-76
2023/07/19 09:50:20;;;;;;;5.27;4.60;;;30.80;94.60;;;;;;5006588;28;20667;-75
2023/07/19 09:52:50;;;;;;;6.70;6.10;;;30.80;94.10;;;;;;5006838;28;20220;-74
2023/07/19 09:55:20;;;;;;;7.90;5.70;;;30.70;94.60;;;;;;5003441;28;20209;-75
2023/07/19 09:57:49;;;;;;;6.43;3.63;;;30.50;95.10;;;;;;5003139;28;20685;-75
2023/07/19 10:00:17;;;;;;;4.60;3.93;;;30.30;96.40;;;;;;5005521;28;20251;-77
2023/07/19 10:02:45;;;;;;;6.97;6.27;;;30.20;97.10;;;;;;5013470;28;20220;-78
2023/07/19 10:05:12;;;;;;;4.53;3.40;;;30.20;96.40;;;;;;5011016;28;20679;-80
2023/07/19 10:07:42;;;;;;;4.23;3.10;;;30.20;96.40;;;;;;5008903;28;20213;-80
2023/07/19 10:10:13;;;;;;;5.33;4.33;;;30.20;96.00;;;;;;5007017;28;20231;-81
2023/07/19 10:12:48;;;;;;;6.50;5.97;;;30.20;96.70;;;;;;5014433;28;20223;-80
2023/07/19 10:15:16;;;;;;;7.43;5.40;;;30.20;96.70;;;;;;5012449;28;20255;-81
2023/07/19 10:17:54;;;;;;;3.77;3.07;;;30.10;96.50;;;;;;5011646;28;20192;-80
2023/07/19 10:20:23;;;;;;;4.83;3.30;;;30.20;96.30;;;;;;5001454;28;20196;-79
2023/07/19 10:22:55;;;;;;;5.30;3.30;;;30.60;96.30;;;;;;5011916;28;20235;-80
2023/07/19 10:25:24;;;;;;;5.90;3.50;;;30.80;96.40;;;;;;5014219;28;20703;-79
2023/07/19 10:28:03;;;;;;;4.40;3.67;;;30.80;95.70;;;;;;5012367;28;20228;-78
2023/07/19 10:30:49;;;;;;;5.17;3.77;;;30.80;95.50;;;;;;5014472;28;20200;-79
2023/07/19 10:33:19;;;;;;;4.77;2.90;;;31.20;96.00;;;;;;5008469;28;20298;-79
2023/07/19 10:35:47;;;;;;;3.70;3.20;;;31.70;94.20;;;;;;5007715;28;20204;-79
2023/07/19 10:38:15;;;;;;;3.25;2.92;;;32.00;94.50;;;;;;5011306;28;20196;-79
2023/07/19 10:40:43;;;;;;;3.90;3.27;;;32.10;92.80;;;;;;5010932;28;20629;-77
2023/07/19 10:43:12;;;;;;;5.57;4.57;;;32.40;94.50;;;;;;5005355;28;20255;-83
2023/07/19 10:45:41;;;;;;;6.32;5.80;;;32.60;93.40;;;;;;5015525;28;20690;-78
2023/07/19 10:48:09;;;;;;;3.83;3.13;;;32.40;92.70;;;;;;4995829;28;20915;-79
2023/07/19 10:50:36;;;;;;;4.17;2.97;;;32.40;92.30;;;;;;4989737;28;20197;-79
2023/07/19 10:53:03;;;;;;;5.47;4.97;;;32.10;92.50;;;;;;4998754;28;20213;-78
2023/07/19 10:55:30;;;;;;;7.77;6.10;;;32.10;91.30;;;;;;5023300;28;20204;-78
2023/07/19 10:57:57;;;;;;;6.80;6.20;;;32.10;91.90;;;;;;5001089;28;20558;-79
2023/07/19 11:00:25;;;;;;;7.07;6.47;;;32.40;92.60;;;;;;5001727;28;20201;-78
2023/07/19 11:02:53;;;;;;;6.32;3.88;;;32.50;91.80;;;;;;5005653;28;20209;-79
2023/07/19 11:05:20;;;;;;;4.30;3.85;;;32.40;90.90;;;;;;5008161;28;20234;-80
2023/07/19 11:07:49;;;;;;;5.43;3.65;;;32.10;91.40;;;;;;5002960;28;20201;-80
2023/07/19 11:10:16;;;;;;;4.03;3.60;;;32.00;91.80;;;;;;5015107;28;20237;-80
2023/07/19 11:12:43;;;;;;;4.75;3.47;;;32.20;92.10;;;;;;5000443;28;20237;-78
2023/07/19 11:15:10;;;;;;;5.97;3.40;;;32.30;92.30;;;;;;5016766;28;20202;-83
2023/07/19 11:17:39;;;;;;;4.32;3.28;;;32.40;92.10;;;;;;4998277;28;20224;-78
2023/07/19 11:20:09;;;;;;;3.50;3.00;;;32.50;92.20;;;;;;4998715;28;20204;-79
2023/07/19 11:22:36;;;;;;;4.53;4.03;;;32.60;90.90;;;;;;5008115;28;20695;-79
2023/07/19 11:25:10;;;;;;;6.60;3.95;;;32.50;91.10;;;;;;5015856;28;20207;-78
2023/07/19 11:27:38;;;;;;;5.78;4.50;;;31.80;91.40;;;;;;5015537;28;20211;-78
2023/07/19 11:30:06;;;;;;;8.70;5.70;;;31.70;91.60;;;;;;5016017;28;20721;-78
2023/07/19 11:32:33;;;;;;;12.03;7.87;;;31.70;90.50;;;;;;5018418;28;20224;-78
2023/07/19 11:35:02;;;;;;;16.83;11.50;;;31.80;91.30;;;;;;5020303;28;20207;-78
2023/07/19 11:37:30;;;;;;;18.13;13.63;;;31.70;90.70;;;;;;5008344;28;20201;-77
2023/07/19 11:39:58;;;;;;;9.93;8.93;;;31.50;91.60;;;;;;5011355;28;20205;-77
2023/07/19 11:42:42;;;;;;;11.90;5.53;;;31.50;91.10;;;;;;4994536;28;20227;-77
2023/07/19 11:45:10;;;;;;;10.03;7.37;;;31.40;91.00;;;;;;5005691;28;20207;-78
2023/07/19 11:47:37;;;;;;;8.43;7.03;;;31.30;92.00;;;;;;5012251;28;20197;-77
2023/07/19 11:50:07;;;;;;;5.67;3.73;;;31.30;92.30;;;;;;4999213;28;20226;-78
2023/07/19 11:52:46;;;;;;;4.30;3.50;;;31.50;91.20;;;;;;5010123;28;20236;-77
2023/07/19 11:55:14;;;;;;;5.00;3.83;;;31.70;91.70;;;;;;5011180;28;20202;-78
2023/07/19 11:57:42;;;;;;;3.83;3.43;;;31.80;91.80;;;;;;4998686;28;20197;-80
2023/07/19 12:00:11;;;;;;;4.27;3.47;;;31.60;90.40;;;;;;5022293;28;20700;-79
2023/07/19 12:02:38;;;;;;;4.60;3.80;;;31.70;90.60;;;;;;5007700;28;20248;-78
2023/07/19 12:05:07;;;;;;;5.30;3.63;;;31.70;89.40;;;;;;5010832;28;20221;-78
2023/07/19 12:07:34;;;;;;;5.37;3.70;;;31.60;90.50;;;;;;4999417;28;20272;-79
2023/07/19 12:10:04;;;;;;;5.70;3.80;;;31.60;88.10;;;;;;5014863;28;20317;-79
2023/07/19 12:12:34;;;;;;;5.57;4.20;;;31.60;90.20;;;;;;5012984;28;20650;-79
2023/07/19 12:15:04;;;;;;;4.53;3.10;;;31.80;90.50;;;;;;5005959;28;20197;-79
2023/07/19 12:17:31;;;;;;;5.60;3.67;;;32.00;89.50;;;;;;5009830;28;20205;-79
2023/07/19 12:19:59;;;;;;;4.40;3.47;;;32.00;89.10;;;;;;5021360;28;20196;-79
2023/07/19 12:22:28;;;;;;;4.47;3.40;;;32.00;90.20;;;;;;5013242;28;20225;-79
2023/07/19 12:24:55;;;;;;;5.33;3.80;;;32.10;90.00;;;;;;5003084;28;20249;-79
2023/07/19 12:27:22;;;;;;;4.40;3.63;;;31.90;90.50;;;;;;5019969;28;20205;-79
2023/07/19 12:29:48;;;;;;;4.60;3.92;;;31.80;90.20;;;;;;4999043;28;20308;-80
2023/07/19 12:32:16;;;;;;;4.88;3.53;;;31.80;90.10;;;;;;5011222;28;20640;-80
2023/07/19 12:34:44;;;;;;;5.67;3.60;;;31.70;90.80;;;;;;4998638;28;20193;-80
2023/07/19 12:37:11;;;;;;;5.47;3.57;;;31.60;89.90;;;;;;5006155;28;20197;-79
2023/07/19 12:39:39;;;;;;;4.63;3.60;;;31.60;90.20;;;;;;5010790;28;20209;-78
2023/07/19 12:42:07;;;;;;;3.90;3.50;;;31.50;90.40;;;;;;5004660;28;20213;-79
2023/07/19 12:44:35;;;;;;;5.00;3.83;;;31.20;90.40;;;;;;5016381;28;20285;-78
2023/07/19 12:47:02;;;;;;;5.03;4.53;;;31.10;90.70;;;;;;5009817;28;20620;-79
2023/07/19 12:49:29;;;;;;;6.17;5.67;;;31.20;90.80;;;;;;4999338;28;20626;-80